Wetterdaten: August 2015
Datum Temp Feuchte Luftdruck Regen Wind Richtung Sonnenschein UV Solar Windben
01.08.2015 17,1 C 67 % 1015,4 hPa 0,0 l/m 1,5 km/h SO 10,67 h 3,3 UV-I 442 W/m 7,2 km/h
02.08.2015 18,8 C 60 % 1018,9 hPa 0,0 l/m 0,2 km/h N-NO 11,67 h 3,5 UV-I 463 W/m 1,2 km/h
03.08.2015 22,1 C 61 % 1014,5 hPa 0,0 l/m 6,9 km/h S 11,92 h 3,4 UV-I 458 W/m 12,5 km/h
04.08.2015 18,9 C 77 % 1013,1 hPa 1,2 l/m 6,4 km/h S 5,17 h 2,2 UV-I 237 W/m 15,3 km/h
05.08.2015 17,3 C 75 % 1016,9 hPa 0,2 l/m 2,5 km/h SO 11,75 h 3,5 UV-I 454 W/m 6,4 km/h
06.08.2015 22,9 C 68 % 1014,0 hPa 0,0 l/m 0,3 km/h S 10,42 h 3,2 UV-I 409 W/m 2,0 km/h
07.08.2015 24,2 C 64 % 1015,2 hPa 0,0 l/m 1,3 km/h N-NO 9,75 h 3,2 UV-I 399 W/m 7,6 km/h
08.08.2015 18,7 C 88 % 1019,9 hPa 0,4 l/m 0,6 km/h N-NW 1,00 h 1,7 UV-I 151 W/m 3,2 km/h
09.08.2015 19,9 C 76 % 1018,8 hPa 0,0 l/m 0,3 km/h N-NO 7,17 h 2,6 UV-I 308 W/m 2,8 km/h
10.08.2015 21,8 C 73 % 1015,1 hPa 0,0 l/m 1,1 km/h N-NW 7,83 h 3,1 UV-I 374 W/m 5,2 km/h
11.08.2015 17,4 C 94 % 1017,9 hPa 1,2 l/m 0,0 km/h N-NO 2,92 h 1,5 UV-I 155 W/m 1,2 km/h
12.08.2015 20,0 C 85 % 1020,7 hPa 0,0 l/m 1,2 km/h N-NO 3,58 h 2,4 UV-I 238 W/m 8,5 km/h
13.08.2015 23,3 C 72 % 1013,9 hPa 0,0 l/m 2,0 km/h O 11,58 h 3,0 UV-I 416 W/m 8,9 km/h
14.08.2015 21,0 C 87 % 1006,7 hPa 0,8 l/m 0,4 km/h SO 4,00 h 2,0 UV-I 222 W/m 1,6 km/h
15.08.2015 19,1 C 89 % 1007,8 hPa 5,2 l/m 0,0 km/h S-SW 4,00 h 2,5 UV-I 251 W/m 0,0 km/h
16.08.2015 16,8 C 97 % 1010,3 hPa 10,4 l/m 0,0 km/h S 0,00 h 0,8 UV-I 61 W/m 0,0 km/h
17.08.2015 13,4 C 97 % 1010,4 hPa 20,0 l/m 0,4 km/h S-SW 0,00 h 0,7 UV-I 51 W/m 8,9 km/h
18.08.2015 13,3 C 93 % 1014,7 hPa 1,6 l/m 1,6 km/h S-SW 0,00 h 1,1 UV-I 83 W/m 9,6 km/h
19.08.2015 14,0 C 86 % 1020,7 hPa 0,2 l/m 0,0 km/h N-NW 8,50 h 2,8 UV-I 361 W/m 0,0 km/h
20.08.2015 15,8 C 82 % 1023,5 hPa 0,0 l/m 0,0 km/h SO 6,17 h 2,2 UV-I 288 W/m 0,0 km/h
21.08.2015 16,1 C 80 % 1023,5 hPa 0,0 l/m 1,0 km/h SO 10,00 h 2,8 UV-I 396 W/m 3,6 km/h
22.08.2015 17,3 C 65 % 1018,9 hPa 0,0 l/m 1,0 km/h SO 11,17 h 2,9 UV-I 430 W/m 4,4 km/h
23.08.2015 18,5 C 57 % 1008,4 hPa 0,0 l/m 3,2 km/h SO 10,42 h 3,0 UV-I 420 W/m 10,1 km/h
24.08.2015 18,1 C 79 % 1003,0 hPa 1,6 l/m 21,3 km/h S-SO 4,58 h 2,6 UV-I 292 W/m 36,6 km/h
25.08.2015 14,7 C 80 % 1012,8 hPa 2,2 l/m 6,6 km/h S 2,33 h 1,7 UV-I 184 W/m 15,7 km/h
26.08.2015 20,3 C 63 % 1012,1 hPa 0,0 l/m 15,0 km/h S-SO 10,50 h 2,9 UV-I 413 W/m 23,0 km/h
27.08.2015 15,9 C 85 % 1009,6 hPa 11,6 l/m 0,3 km/h S 0,00 h 0,9 UV-I 60 W/m 2,0 km/h
28.08.2015 13,7 C 88 % 1018,3 hPa 4,4 l/m 0,1 km/h NW 5,42 h 2,5 UV-I 275 W/m 1,2 km/h
29.08.2015 16,4 C 83 % 1021,5 hPa 0,2 l/m 0,6 km/h SO 10,00 h 3,1 UV-I 399 W/m 2,8 km/h
30.08.2015 22,5 C 85 % 1015,8 hPa 0,0 l/m 1,0 km/h SO 9,75 h 2,7 UV-I 378 W/m 3,6 km/h
31.08.2015 23,3 C 68 % 1008,6 hPa 0,0 l/m 4,3 km/h S 10,17 h 2,9 UV-I 396 W/m 6,4 km/h
Min-Datum 01.08.15 02.08.15 24.08.15 15 Tage 01.08.15 - - - - 01.08.15
Min-Zeit 00:00 15:50 17:30 - 00:00 - - - - 00:00
Minimum 7,6 C 33 % 1000,9 hPa - 0,0 km/h - - - - 0,0 km/h
Max-Datum 06.08.15 02.08.15 21.08.15 17.08.15 26.08.15 - 03.08.15 05.08.15 07.08.15 24.08.15
Max-Zeit 16:10 04:40 10:25 00:55 16:10 - 19:35 13:20 14:05 20:50
Maximum 32,4 C 98 % 1024,8 hPa 20,0 l/m 27,2 km/h
S-SO
- 11,83 h 6,7 UV-I 1014 W/m 45,1 km/h
S
Durchschnitt 18,5 C 78 % 1014,9 hPa #61,2 l/m 2,6 km/h S #212:25 h 2,5 UV-I 305 W/m 6,8 km/h

Durchschnitt Minimum Temp.13,3 C
Durchschnitt Maximum Temp.24,7 C